createdAt,value
2023-05-19T00:02:25.956Z,2.37
2023-05-19T00:04:53.210Z,1.80
2023-05-19T00:07:23.159Z,2.40
2023-05-19T00:09:50.780Z,2.27
2023-05-19T00:12:17.847Z,1.80
2023-05-19T00:14:44.786Z,2.30
2023-05-19T00:17:11.790Z,1.87
2023-05-19T00:19:39.454Z,2.13
2023-05-19T00:22:06.292Z,2.03
2023-05-19T00:24:33.315Z,2.30
2023-05-19T00:26:59.993Z,1.83
2023-05-19T00:29:26.640Z,2.17
2023-05-19T00:31:53.416Z,1.80
2023-05-19T00:34:20.287Z,1.80
2023-05-19T00:36:47.030Z,1.90
2023-05-19T00:39:13.767Z,2.20
2023-05-19T00:41:40.561Z,1.93
2023-05-19T00:44:07.599Z,2.33
2023-05-19T00:46:34.548Z,1.97
2023-05-19T00:49:01.274Z,2.20
2023-05-19T00:51:29.548Z,2.23
2023-05-19T00:53:56.575Z,1.80
2023-05-19T00:56:23.465Z,1.97
2023-05-19T00:58:51.757Z,1.83
2023-05-19T01:01:18.941Z,2.27
2023-05-19T01:03:47.043Z,2.10
2023-05-19T01:06:15.005Z,2.00
2023-05-19T01:08:41.766Z,2.30
2023-05-19T01:11:08.938Z,1.70
2023-05-19T01:13:36.667Z,2.00
2023-05-19T01:16:03.534Z,2.00
2023-05-19T01:18:39.103Z,1.93
2023-05-19T01:21:23.594Z,1.90
2023-05-19T01:24:23.291Z,2.10
2023-05-19T01:27:11.489Z,2.37
2023-05-19T01:30:06.133Z,2.23
2023-05-19T01:32:34.684Z,2.20
2023-05-19T01:35:03.093Z,1.80
2023-05-19T01:37:30.279Z,1.90
2023-05-19T01:39:57.472Z,1.93
2023-05-19T01:42:26.228Z,2.30
2023-05-19T01:44:54.608Z,2.23
2023-05-19T01:47:22.265Z,1.90
2023-05-19T01:49:48.983Z,2.17
2023-05-19T01:52:15.876Z,1.90
2023-05-19T01:54:42.601Z,1.80
2023-05-19T01:57:15.287Z,1.77
2023-05-19T02:00:23.365Z,1.87
2023-05-19T02:03:06.065Z,2.07
2023-05-19T02:05:52.938Z,2.00
2023-05-19T02:08:44.219Z,1.93
2023-05-19T02:11:19.705Z,2.10
2023-05-19T02:13:50.065Z,2.00
2023-05-19T02:16:17.673Z,1.80
2023-05-19T02:18:46.188Z,2.17
2023-05-19T02:21:13.480Z,2.00
2023-05-19T02:23:41.882Z,2.60
2023-05-19T02:26:08.723Z,2.30
2023-05-19T02:28:36.584Z,2.27
2023-05-19T02:31:05.176Z,2.17
2023-05-19T02:33:32.350Z,2.13
2023-05-19T02:35:59.077Z,2.27
2023-05-19T02:38:26.346Z,2.10
2023-05-19T02:40:53.371Z,2.03
2023-05-19T02:43:20.146Z,2.30
2023-05-19T02:45:46.849Z,1.90
2023-05-19T02:48:13.577Z,2.30
2023-05-19T02:50:40.394Z,2.30
2023-05-19T02:53:07.048Z,2.30
2023-05-19T02:55:33.714Z,1.90
2023-05-19T02:58:00.428Z,2.27
2023-05-19T03:00:27.114Z,2.37
2023-05-19T03:02:54.098Z,2.10
2023-05-19T03:05:20.901Z,2.53
2023-05-19T03:07:47.578Z,2.40
2023-05-19T03:10:14.251Z,2.30
2023-05-19T03:12:41.041Z,2.47
2023-05-19T03:15:08.518Z,2.60
2023-05-19T03:17:36.489Z,2.30
2023-05-19T03:20:05.205Z,2.13
2023-05-19T03:22:32.263Z,2.10
2023-05-19T03:24:58.984Z,2.50
2023-05-19T03:27:25.799Z,2.00
2023-05-19T03:29:53.810Z,2.03
2023-05-19T03:32:20.498Z,2.30
2023-05-19T03:34:47.185Z,2.50
2023-05-19T03:37:14.052Z,2.20
2023-05-19T03:39:40.832Z,2.00
2023-05-19T03:42:07.533Z,2.60
2023-05-19T03:44:34.342Z,2.40
2023-05-19T03:47:01.086Z,1.70
2023-05-19T03:49:27.746Z,1.97
2023-05-19T03:51:54.433Z,1.73
2023-05-19T03:54:22.435Z,2.77
2023-05-19T03:56:49.423Z,2.80
2023-05-19T03:59:16.224Z,2.40
2023-05-19T04:01:42.923Z,2.20
2023-05-19T04:04:09.649Z,2.20
2023-05-19T04:06:37.661Z,2.70
2023-05-19T04:09:12.899Z,2.47
2023-05-19T04:11:40.378Z,2.27
2023-05-19T04:14:07.735Z,2.40
2023-05-19T04:16:35.123Z,2.50
2023-05-19T04:19:02.044Z,2.40
2023-05-19T04:21:28.784Z,2.10
2023-05-19T04:23:55.490Z,2.50
2023-05-19T04:26:22.666Z,2.57
2023-05-19T04:28:49.401Z,2.27
2023-05-19T04:31:16.127Z,3.00
2023-05-19T04:33:42.891Z,2.50
2023-05-19T04:36:11.449Z,2.63
2023-05-19T04:38:40.323Z,2.23
2023-05-19T04:41:10.675Z,2.27
2023-05-19T04:43:41.861Z,2.70
2023-05-19T04:46:13.247Z,2.23
2023-05-19T04:48:41.154Z,2.40
2023-05-19T04:51:08.041Z,2.10
2023-05-19T04:53:34.995Z,2.87
2023-05-19T04:56:02.371Z,2.07
2023-05-19T04:58:29.223Z,2.37
2023-05-19T05:00:56.022Z,2.00
2023-05-19T05:03:26.543Z,2.20
2023-05-19T05:05:53.429Z,2.37
2023-05-19T05:08:23.257Z,2.20
2023-05-19T05:10:53.528Z,2.47
2023-05-19T05:13:23.037Z,1.93
2023-05-19T05:15:52.119Z,2.40
2023-05-19T05:18:19.519Z,2.43
2023-05-19T05:20:46.891Z,2.47
2023-05-19T05:23:16.935Z,2.13
2023-05-19T05:25:44.542Z,2.20
2023-05-19T05:28:11.389Z,2.47
2023-05-19T05:30:38.362Z,2.13
2023-05-19T05:33:06.372Z,2.43
2023-05-19T05:35:33.401Z,2.43
2023-05-19T05:38:01.669Z,2.70
2023-05-19T05:40:28.585Z,3.13
2023-05-19T05:42:55.854Z,2.57
2023-05-19T05:45:23.375Z,2.37
2023-05-19T05:47:50.934Z,2.47
2023-05-19T05:50:18.621Z,2.30
2023-05-19T05:52:47.327Z,2.60
2023-05-19T05:55:15.394Z,2.63
2023-05-19T05:57:42.075Z,1.90
2023-05-19T06:00:15.872Z,2.10
2023-05-19T06:02:47.371Z,1.87
2023-05-19T06:05:14.359Z,2.20
2023-05-19T06:07:41.592Z,2.27
2023-05-19T06:10:09.869Z,2.30
2023-05-19T06:12:40.589Z,2.47
2023-05-19T06:15:08.076Z,2.40
2023-05-19T06:17:38.113Z,2.10
2023-05-19T06:20:10.220Z,3.43
2023-05-19T06:22:37.297Z,2.67
2023-05-19T06:25:04.609Z,2.37
2023-05-19T06:27:33.317Z,2.37
2023-05-19T06:30:01.570Z,2.40
2023-05-19T06:32:29.792Z,2.20
2023-05-19T06:34:56.541Z,2.30
2023-05-19T06:37:23.771Z,2.27
2023-05-19T06:39:56.432Z,1.90
2023-05-19T06:42:24.115Z,2.50
2023-05-19T06:44:51.808Z,2.20
2023-05-19T06:47:18.964Z,2.57
2023-05-19T06:49:45.960Z,2.60
2023-05-19T06:52:12.790Z,2.23
2023-05-19T06:54:39.564Z,2.17
2023-05-19T06:57:09.418Z,2.37
2023-05-19T06:59:37.535Z,2.53
2023-05-19T07:02:04.825Z,2.70
2023-05-19T07:04:31.550Z,2.20
2023-05-19T07:06:58.711Z,2.17
2023-05-19T07:09:25.657Z,2.30
2023-05-19T07:11:52.434Z,2.67
2023-05-19T07:14:20.822Z,2.20
2023-05-19T07:16:47.728Z,3.10
2023-05-19T07:19:14.679Z,2.17
2023-05-19T07:21:42.371Z,2.00
2023-05-19T07:24:09.087Z,2.20
2023-05-19T07:26:35.769Z,2.20
2023-05-19T07:29:02.507Z,2.57
2023-05-19T07:31:29.291Z,2.20
2023-05-19T07:33:56.680Z,2.40
2023-05-19T07:36:23.361Z,2.27
2023-05-19T07:38:50.265Z,2.30
2023-05-19T07:41:17.055Z,2.60
2023-05-19T07:43:43.737Z,2.57
2023-05-19T07:46:10.598Z,2.13
2023-05-19T07:48:37.337Z,2.30
2023-05-19T07:51:04.181Z,2.40
2023-05-19T07:53:30.963Z,2.33
2023-05-19T07:55:58.766Z,2.40
2023-05-19T07:58:26.722Z,2.50
2023-05-19T08:00:53.554Z,2.60
2023-05-19T08:03:20.944Z,2.50
2023-05-19T08:05:48.059Z,2.23
2023-05-19T08:08:16.669Z,2.50
2023-05-19T08:10:43.809Z,2.87
2023-05-19T08:13:10.630Z,2.20
2023-05-19T08:15:37.613Z,2.60
2023-05-19T08:18:05.359Z,2.20
2023-05-19T08:20:32.885Z,2.27
2023-05-19T08:22:59.957Z,3.07
2023-05-19T08:25:26.636Z,2.67
2023-05-19T08:27:53.399Z,2.10
2023-05-19T08:30:20.296Z,1.90
2023-05-19T08:32:48.524Z,2.67
2023-05-19T08:35:15.618Z,2.20
2023-05-19T08:37:42.848Z,2.20
2023-05-19T08:40:16.702Z,2.00
2023-05-19T08:42:44.695Z,2.30
2023-05-19T08:45:11.841Z,2.30
2023-05-19T08:47:39.766Z,2.20
2023-05-19T08:50:08.024Z,2.20
2023-05-19T08:52:55.808Z,2.60
2023-05-19T08:55:41.876Z,2.40
2023-05-19T08:58:09.658Z,2.50
2023-05-19T09:00:37.066Z,2.13
2023-05-19T09:03:17.638Z,2.17
2023-05-19T09:05:46.568Z,2.30
2023-05-19T09:08:13.710Z,2.07
2023-05-19T09:10:40.887Z,2.00
2023-05-19T09:13:07.696Z,2.37
2023-05-19T09:15:36.764Z,2.53
2023-05-19T09:18:08.964Z,2.20
2023-05-19T09:20:43.858Z,2.57
2023-05-19T09:23:16.166Z,2.00
2023-05-19T09:25:53.109Z,2.40
2023-05-19T09:28:28.033Z,2.30
2023-05-19T09:31:03.477Z,2.53
2023-05-19T09:33:32.435Z,2.13
2023-05-19T09:36:02.638Z,2.40
2023-05-19T09:38:29.671Z,2.33
2023-05-19T09:40:58.381Z,2.40
2023-05-19T09:43:28.603Z,2.47
2023-05-19T09:46:06.325Z,2.30
2023-05-19T09:48:34.607Z,2.30
2023-05-19T09:51:05.236Z,2.00
2023-05-19T09:53:32.636Z,2.37
2023-05-19T09:56:01.924Z,2.40
2023-05-19T09:58:34.802Z,2.10
2023-05-19T10:01:02.814Z,2.50
2023-05-19T10:03:30.937Z,2.37
2023-05-19T10:05:58.153Z,2.20
2023-05-19T10:08:27.246Z,1.93
2023-05-19T10:10:54.397Z,2.27
2023-05-19T10:13:22.185Z,2.20
2023-05-19T10:18:20.846Z,1.90
2023-05-19T10:20:49.025Z,1.73
2023-05-19T10:23:16.279Z,2.27
2023-05-19T10:25:43.830Z,1.90
2023-05-19T10:28:17.171Z,2.20
2023-05-19T10:30:47.540Z,2.30
2023-05-19T10:33:18.160Z,2.10
2023-05-19T10:36:08.305Z,2.67
2023-05-19T10:38:53.138Z,2.50
2023-05-19T10:41:22.975Z,2.00
2023-05-19T10:43:54.497Z,1.80
2023-05-19T10:46:27.118Z,1.90
2023-05-19T10:48:54.524Z,2.63
2023-05-19T10:51:21.363Z,2.33
2023-05-19T10:53:49.963Z,2.13
2023-05-19T10:56:34.718Z,1.97
2023-05-19T10:59:02.453Z,1.87
2023-05-19T11:01:37.234Z,1.80
2023-05-19T11:04:12.066Z,1.90
2023-05-19T11:06:41.799Z,1.93
2023-05-19T11:09:17.934Z,1.70
2023-05-19T11:11:49.986Z,1.80
2023-05-19T11:14:26.853Z,1.67
2023-05-19T11:16:57.318Z,1.83
2023-05-19T11:19:28.134Z,1.90
2023-05-19T11:21:55.805Z,1.80
2023-05-19T11:24:45.778Z,1.67
2023-05-19T11:27:25.216Z,1.60
2023-05-19T11:29:53.018Z,1.73
2023-05-19T11:32:26.239Z,2.00
2023-05-19T11:34:55.108Z,1.70
2023-05-19T11:37:22.050Z,1.70
2023-05-19T11:39:49.471Z,1.93
2023-05-19T11:42:16.772Z,1.70
2023-05-19T11:44:46.260Z,1.60
2023-05-19T11:47:17.298Z,1.70
2023-05-19T11:49:55.115Z,1.80
2023-05-19T11:52:23.223Z,2.07
2023-05-19T11:54:50.634Z,1.83
2023-05-19T11:57:17.859Z,1.93
2023-05-19T11:59:45.887Z,2.60
2023-05-19T12:02:26.129Z,2.10
2023-05-19T12:04:53.453Z,1.90
2023-05-19T12:07:24.488Z,1.63
2023-05-19T12:09:52.069Z,2.03
2023-05-19T12:12:20.795Z,2.23
2023-05-19T12:14:50.212Z,2.20
2023-05-19T12:17:19.797Z,2.20
2023-05-19T12:19:48.590Z,2.03
2023-05-19T12:22:16.586Z,1.90
2023-05-19T12:24:44.961Z,2.30
2023-05-19T12:27:22.779Z,2.03
2023-05-19T12:29:53.638Z,2.33
2023-05-19T12:32:25.545Z,2.20
2023-05-19T12:34:53.850Z,2.40
2023-05-19T12:37:21.121Z,2.50
2023-05-19T12:39:49.332Z,2.70
2023-05-19T12:42:16.558Z,2.53
2023-05-19T12:44:52.730Z,2.90
2023-05-19T12:47:21.054Z,2.50
2023-05-19T12:49:56.046Z,2.53
2023-05-19T12:52:23.584Z,2.60
2023-05-19T12:55:07.129Z,2.30
2023-05-19T12:57:38.946Z,2.23
2023-05-19T13:00:25.615Z,2.50
2023-05-19T13:03:05.041Z,2.50
2023-05-19T13:05:40.051Z,2.33
2023-05-19T13:08:11.352Z,3.03
2023-05-19T13:10:39.768Z,2.40
2023-05-19T13:13:07.690Z,2.50
2023-05-19T13:15:37.580Z,2.30
2023-05-19T13:18:06.281Z,2.20
2023-05-19T13:20:34.073Z,2.50
2023-05-19T13:23:01.080Z,2.67
2023-05-19T13:25:28.237Z,2.53
2023-05-19T13:27:55.185Z,2.33
2023-05-19T13:30:22.666Z,2.53
2023-05-19T13:32:49.561Z,2.63
2023-05-19T13:35:16.524Z,2.70
2023-05-19T13:37:43.430Z,2.47
2023-05-19T13:40:10.972Z,2.73
2023-05-19T13:42:38.023Z,2.40
2023-05-19T13:45:05.533Z,2.33
2023-05-19T13:47:32.515Z,2.40
2023-05-19T13:49:59.480Z,2.50
2023-05-19T13:52:27.519Z,2.50
2023-05-19T13:54:56.520Z,2.33
2023-05-19T13:57:26.466Z,2.40
2023-05-19T14:00:02.538Z,2.43
2023-05-19T14:02:30.711Z,2.00
2023-05-19T14:04:57.778Z,2.37
2023-05-19T14:07:25.743Z,4.03
2023-05-19T14:09:52.760Z,3.07
2023-05-19T14:12:23.225Z,2.70
2023-05-19T14:14:52.207Z,2.70
2023-05-19T14:17:18.965Z,2.47
2023-05-19T14:19:45.719Z,2.53
2023-05-19T14:22:13.437Z,2.73
2023-05-19T14:24:41.473Z,2.57
2023-05-19T14:27:08.195Z,2.60
2023-05-19T14:29:35.316Z,2.67
2023-05-19T14:32:03.199Z,2.40
2023-05-19T14:34:30.347Z,3.23
2023-05-19T14:36:57.237Z,2.50
2023-05-19T14:39:23.943Z,2.70
2023-05-19T14:41:51.864Z,2.33
2023-05-19T14:44:18.755Z,2.70
2023-05-19T14:46:45.605Z,2.40
2023-05-19T14:49:12.421Z,2.40
2023-05-19T14:51:39.089Z,2.83
2023-05-19T14:54:05.768Z,2.50
2023-05-19T14:56:32.661Z,2.10
2023-05-19T14:58:59.427Z,2.30
2023-05-19T15:01:26.310Z,2.60
2023-05-19T15:03:53.193Z,2.53
2023-05-19T15:06:20.004Z,2.87
2023-05-19T15:08:46.814Z,2.40
2023-05-19T15:11:13.569Z,2.03
2023-05-19T15:13:40.466Z,3.47
2023-05-19T15:16:17.594Z,2.40
2023-05-19T15:18:45.322Z,2.63
2023-05-19T15:21:12.464Z,2.13
2023-05-19T15:23:39.256Z,2.27
2023-05-19T15:26:06.743Z,2.47
2023-05-19T15:28:34.240Z,2.70
2023-05-19T15:31:01.067Z,2.30
2023-05-19T15:33:27.877Z,3.33
2023-05-19T15:35:54.540Z,2.70
2023-05-19T15:38:21.424Z,2.30
2023-05-19T15:40:48.185Z,2.40
2023-05-19T15:43:15.161Z,1.97
2023-05-19T15:45:42.014Z,1.83
2023-05-19T15:48:08.820Z,2.20
2023-05-19T15:50:36.150Z,2.10
2023-05-19T15:53:03.370Z,2.27
2023-05-19T15:55:30.402Z,2.20
2023-05-19T15:57:57.292Z,1.70
2023-05-19T16:00:24.208Z,2.30
2023-05-19T16:02:51.200Z,2.17
2023-05-19T16:05:18.197Z,1.87
2023-05-19T16:07:45.136Z,2.13
2023-05-19T16:10:11.972Z,2.20
2023-05-19T16:12:38.750Z,2.17
2023-05-19T16:15:06.014Z,2.13
2023-05-19T16:17:32.933Z,2.33
2023-05-19T16:19:59.662Z,2.20
2023-05-19T16:22:27.126Z,1.93
2023-05-19T16:24:54.278Z,2.53
2023-05-19T16:27:21.101Z,1.90
2023-05-19T16:29:50.941Z,2.00
2023-05-19T16:32:17.692Z,1.80
2023-05-19T16:34:44.487Z,2.10
2023-05-19T16:37:11.244Z,2.10
2023-05-19T16:39:38.088Z,2.17
2023-05-19T16:42:05.145Z,1.83
2023-05-19T16:44:31.833Z,2.13
2023-05-19T16:46:58.590Z,2.30
2023-05-19T16:49:25.348Z,1.87
2023-05-19T16:51:53.142Z,1.73
2023-05-19T16:54:21.027Z,1.97
2023-05-19T16:56:47.936Z,1.67
2023-05-19T16:59:21.240Z,2.00
2023-05-19T17:01:48.030Z,1.50
2023-05-19T17:04:15.260Z,1.83
2023-05-19T17:06:41.943Z,2.27
2023-05-19T17:09:08.674Z,1.70
2023-05-19T17:11:35.409Z,1.97
2023-05-19T17:14:04.159Z,1.60
2023-05-19T17:16:30.924Z,1.80
2023-05-19T17:18:57.639Z,2.10
2023-05-19T17:21:24.373Z,2.97
2023-05-19T17:23:51.253Z,2.90
2023-05-19T17:26:17.941Z,2.00
2023-05-19T17:28:44.707Z,2.00
2023-05-19T17:31:15.753Z,1.70
2023-05-19T17:33:42.487Z,2.00
2023-05-19T17:36:09.459Z,2.07
2023-05-19T17:38:40.180Z,1.90
2023-05-19T17:41:10.994Z,1.90
2023-05-19T17:43:39.336Z,1.97
2023-05-19T17:46:06.473Z,2.17
2023-05-19T17:48:33.636Z,1.80
2023-05-19T17:51:00.473Z,2.47
2023-05-19T17:53:27.897Z,2.17
2023-05-19T17:56:02.321Z,2.00
2023-05-19T17:58:29.673Z,2.00
2023-05-19T18:00:56.728Z,2.00
2023-05-19T18:03:24.071Z,1.70
2023-05-19T18:05:51.466Z,1.73
2023-05-19T18:08:18.701Z,2.03
2023-05-19T18:10:51.216Z,2.13
2023-05-19T18:13:18.062Z,2.57
2023-05-19T18:15:44.773Z,1.90
2023-05-19T18:18:11.674Z,3.00
2023-05-19T18:20:40.873Z,1.83
2023-05-19T18:23:07.609Z,1.50
2023-05-19T18:25:35.888Z,1.63
2023-05-19T18:28:02.766Z,1.70
2023-05-19T18:30:29.730Z,1.90
2023-05-19T18:32:56.721Z,1.70
2023-05-19T18:35:23.413Z,2.13
2023-05-19T18:37:50.688Z,2.17
2023-05-19T18:40:17.524Z,2.13
2023-05-19T18:42:44.234Z,2.20
2023-05-19T18:45:11.416Z,2.20
2023-05-19T18:47:38.109Z,2.03
2023-05-19T18:50:05.306Z,1.67
2023-05-19T18:52:32.276Z,2.07
2023-05-19T18:55:00.704Z,1.80
2023-05-19T18:57:27.415Z,2.40
2023-05-19T18:59:54.155Z,2.13
2023-05-19T19:02:20.961Z,2.00
2023-05-19T19:04:51.050Z,2.50
2023-05-19T19:07:17.941Z,1.70
2023-05-19T19:09:44.875Z,2.00
2023-05-19T19:12:11.824Z,1.93
2023-05-19T19:14:38.989Z,2.20
2023-05-19T19:17:06.131Z,2.57
2023-05-19T19:19:33.157Z,2.07
2023-05-19T19:22:00.000Z,2.20
2023-05-19T19:24:28.473Z,2.40
2023-05-19T19:26:55.254Z,2.70
2023-05-19T19:29:22.257Z,2.33
2023-05-19T19:31:49.219Z,2.30
2023-05-19T19:34:17.690Z,2.00
2023-05-19T19:36:44.846Z,1.80
2023-05-19T19:39:11.967Z,1.90
2023-05-19T19:41:40.966Z,2.40
2023-05-19T19:44:07.825Z,2.27
2023-05-19T19:46:34.886Z,2.20
2023-05-19T19:49:01.881Z,2.03
2023-05-19T19:51:28.934Z,2.47
2023-05-19T19:53:55.647Z,3.13
2023-05-19T19:56:24.526Z,3.63
2023-05-19T19:58:51.407Z,3.73
2023-05-19T20:01:20.491Z,3.23
2023-05-19T20:03:47.984Z,3.10
2023-05-19T20:06:15.264Z,3.17
2023-05-19T20:08:42.420Z,3.20
2023-05-19T20:11:09.282Z,3.70
2023-05-19T20:13:36.473Z,3.30
2023-05-19T20:16:03.361Z,3.20
2023-05-19T20:18:30.248Z,3.03
2023-05-19T20:20:57.258Z,4.50
2023-05-19T20:23:24.006Z,3.60
2023-05-19T20:26:09.941Z,3.33
2023-05-19T20:28:37.653Z,4.30
2023-05-19T20:31:06.269Z,4.30
2023-05-19T20:33:33.149Z,4.77
2023-05-19T20:36:00.069Z,4.17
2023-05-19T20:38:26.844Z,4.60
2023-05-19T20:40:54.700Z,3.87
2023-05-19T20:43:21.564Z,3.90
2023-05-19T20:45:48.493Z,3.50
2023-05-19T20:48:18.147Z,3.10
2023-05-19T20:50:45.049Z,2.77
2023-05-19T20:53:11.829Z,2.83
2023-05-19T20:55:39.053Z,3.50
2023-05-19T20:58:06.059Z,3.37
2023-05-19T21:00:33.174Z,3.70
2023-05-19T21:03:00.740Z,4.10
2023-05-19T21:05:27.601Z,4.03
2023-05-19T21:07:54.439Z,3.67
2023-05-19T21:10:21.474Z,3.37
2023-05-19T21:12:48.236Z,3.37
2023-05-19T21:15:15.071Z,3.60
2023-05-19T21:17:41.888Z,2.87
2023-05-19T21:20:09.488Z,3.20
2023-05-19T21:22:36.332Z,3.07
2023-05-19T21:25:03.684Z,3.77
2023-05-19T21:27:32.855Z,3.60
2023-05-19T21:30:00.033Z,4.10
2023-05-19T21:32:29.534Z,4.20
2023-05-19T21:34:56.414Z,3.40
2023-05-19T21:37:23.327Z,3.60
2023-05-19T21:39:50.099Z,2.97
2023-05-19T21:42:16.905Z,3.60
2023-05-19T21:44:43.595Z,3.20
2023-05-19T21:47:10.401Z,3.60
2023-05-19T21:49:38.366Z,3.20
2023-05-19T21:52:06.218Z,3.23
2023-05-19T21:54:33.024Z,3.00
2023-05-19T21:56:59.864Z,3.10
2023-05-19T21:59:26.671Z,2.90
2023-05-19T22:01:53.569Z,3.03
2023-05-19T22:04:21.496Z,3.00
2023-05-19T22:06:48.528Z,2.90
2023-05-19T22:09:15.356Z,2.83
2023-05-19T22:11:42.179Z,3.73
2023-05-19T22:14:08.899Z,4.63
2023-05-19T22:16:35.673Z,3.50
2023-05-19T22:19:02.539Z,3.67
2023-05-19T22:21:29.431Z,3.53
2023-05-19T22:23:56.220Z,3.13
2023-05-19T22:26:23.033Z,3.77
2023-05-19T22:28:50.394Z,3.33
2023-05-19T22:31:17.665Z,3.00
2023-05-19T22:33:44.622Z,3.57
2023-05-19T22:36:11.444Z,3.57
2023-05-19T22:38:38.153Z,3.80
2023-05-19T22:41:05.311Z,3.60
2023-05-19T22:43:32.164Z,3.33
2023-05-19T22:45:58.968Z,3.70
2023-05-19T22:48:25.712Z,3.30
2023-05-19T22:50:52.589Z,3.50
2023-05-19T22:53:19.376Z,2.73
2023-05-19T22:55:46.232Z,2.87
2023-05-19T22:58:13.045Z,3.27
2023-05-19T23:00:40.201Z,3.33
2023-05-19T23:03:07.127Z,3.50
2023-05-19T23:05:34.398Z,3.33
2023-05-19T23:08:01.548Z,3.23
2023-05-19T23:10:28.364Z,3.40
2023-05-19T23:12:55.191Z,3.60
2023-05-19T23:15:21.964Z,3.23
2023-05-19T23:17:48.801Z,3.43
2023-05-19T23:20:15.740Z,3.50
2023-05-19T23:22:42.444Z,3.60
2023-05-19T23:25:11.719Z,3.97
2023-05-19T23:27:38.384Z,3.33
2023-05-19T23:30:05.823Z,4.20
2023-05-19T23:32:32.616Z,3.60
2023-05-19T23:35:16.785Z,4.50
2023-05-19T23:37:43.571Z,3.70
2023-05-19T23:40:10.618Z,3.63
2023-05-19T23:42:37.543Z,4.50
2023-05-19T23:45:05.003Z,3.80
2023-05-19T23:47:31.766Z,4.00
2023-05-19T23:49:58.556Z,3.67
2023-05-19T23:52:25.250Z,4.27
2023-05-19T23:54:52.001Z,4.07
2023-05-19T23:57:18.700Z,4.13
2023-05-19T23:59:45.720Z,4.47
